Terminal Aerodrome Forecast
Issued by NWS Charleston, WV

Current Version | Previous Version | Graphics & Text | Print | Product List | Glossary On
Versions: 1 2 3 4 5 6 7 8 9 10 11 12 13 14 15 16 17 18 19 20 21 22 23 24 25 26 27 28
000
FTUS41 KRLX 211100
TAFEKN
TAF
KEKN 211133Z 2112/2212 25006KT 6SM BR SCT019
     FM211500 VRB03KT P6SM BKN050
     FM211700 26004KT P6SM VCTS BKN035CB
     FM212000 25005KT 5SM TSRA BR BKN025CB
     FM220200 00000KT 6SM BR VCTS BKN025CB
     FM220500 00000KT 4SM BR BKN025
     FM220800 00000KT 2SM BR BKN015=

USA.gov is the U.S. government's official web portal to all federal, state and local government web resources and services.